createdAt,value
2024-01-07T00:00:05.381Z,1003.36
2024-01-07T00:16:01.408Z,1003.36
2024-01-07T00:31:01.961Z,1003.22
2024-01-07T00:46:02.876Z,1003.25
2024-01-07T01:00:03.485Z,1003.29
2024-01-07T01:16:04.488Z,1003.36
2024-01-07T01:31:05.425Z,1003.39
2024-01-07T01:46:01.164Z,1003.32
2024-01-07T02:00:01.604Z,1003.25
2024-01-07T02:16:02.834Z,1003.42
2024-01-07T02:31:03.601Z,1003.39
2024-01-07T02:46:04.227Z,1003.39
2024-01-07T03:00:04.752Z,1003.19
2024-01-07T03:16:05.689Z,1003.22
2024-01-07T03:31:01.393Z,1003.39
2024-01-07T03:46:01.843Z,1003.46
2024-01-07T04:00:02.372Z,1003.59
2024-01-07T04:16:03.319Z,1003.63
2024-01-07T04:31:04.055Z,1003.7
2024-01-07T04:46:04.918Z,1003.8
2024-01-07T05:00:05.503Z,1003.93
2024-01-07T05:16:01.240Z,1004.03
2024-01-07T05:31:02.065Z,1004.14
2024-01-07T05:46:02.813Z,1004.2
2024-01-07T06:00:03.628Z,1004.3
2024-01-07T06:16:04.484Z,1004.34
2024-01-07T06:31:05.190Z,1004.44
2024-01-07T06:46:05.860Z,1004.58
2024-01-07T07:00:01.510Z,1004.71
2024-01-07T07:16:02.231Z,1004.74
2024-01-07T07:31:02.947Z,1004.88
2024-01-07T07:46:03.684Z,1004.95
2024-01-07T08:00:05.280Z,1005.05
2024-01-07T08:16:05.232Z,1005.25
2024-01-07T08:31:06.030Z,1005.22
2024-01-07T08:46:01.431Z,1005.32
2024-01-07T09:00:01.919Z,1005.42
2024-01-07T09:16:02.961Z,1005.59
2024-01-07T09:31:03.933Z,1005.73
2024-01-07T09:46:04.622Z,1005.73
2024-01-07T10:00:05.018Z,1005.63
2024-01-07T10:16:05.482Z,1005.63
2024-01-07T10:31:06.036Z,1005.56
2024-01-07T10:46:01.749Z,1005.49
2024-01-07T11:00:02.365Z,1005.46
2024-01-07T11:16:03.397Z,1005.46
2024-01-07T11:31:04.056Z,1005.35
2024-01-07T11:46:04.864Z,1005.32
2024-01-07T12:00:04.728Z,1005.25
2024-01-07T12:16:01.444Z,1005.22
2024-01-07T12:31:02.190Z,1005.22
2024-01-07T12:46:02.991Z,1005.19
2024-01-07T13:00:03.135Z,1005.22
2024-01-07T13:16:04.713Z,1005.32
2024-01-07T13:31:04.917Z,1005.49
2024-01-07T13:46:06.050Z,1005.56
2024-01-07T14:00:01.362Z,1005.69
2024-01-07T14:16:01.826Z,1005.83
2024-01-07T14:31:06.655Z,1005.93
2024-01-07T14:46:03.426Z,1006.03
2024-01-07T15:00:04.162Z,1006.23
2024-01-07T15:16:05.099Z,1006.34
2024-01-07T15:31:05.964Z,1006.51
2024-01-07T15:46:01.410Z,1006.68
2024-01-07T16:00:02.324Z,1006.78
2024-01-07T16:16:06.116Z,1006.84
2024-01-07T16:31:03.614Z,1006.98
2024-01-07T16:46:04.399Z,1007.18
2024-01-07T17:00:05.223Z,1007.35
2024-01-07T17:16:05.661Z,1007.42
2024-01-07T17:31:01.590Z,1007.66
2024-01-07T17:46:02.377Z,1007.79
2024-01-07T18:00:02.688Z,1008
2024-01-07T18:16:03.532Z,1008.1
2024-01-07T18:31:04.186Z,1008.27
2024-01-07T18:46:05.056Z,1008.37
2024-01-07T19:00:06.155Z,1008.4
2024-01-07T19:16:01.916Z,1008.54
2024-01-07T19:31:02.862Z,1008.61
2024-01-07T19:46:03.326Z,1008.64
2024-01-07T20:00:04.002Z,1008.81
2024-01-07T20:16:04.903Z,1008.91
2024-01-07T20:31:08.954Z,1008.98
2024-01-07T20:46:01.757Z,1009.08
2024-01-07T21:00:02.569Z,1009.18
2024-01-07T21:16:03.345Z,1009.32
2024-01-07T21:31:04.336Z,1009.42
2024-01-07T21:46:04.953Z,1009.45
2024-01-07T22:00:05.620Z,1009.55
2024-01-07T22:16:01.354Z,1009.66
2024-01-07T22:31:02.089Z,1009.72
2024-01-07T22:46:02.636Z,1009.79
2024-01-07T23:00:02.928Z,1009.89
2024-01-07T23:16:03.316Z,1009.99
2024-01-07T23:31:04.456Z,1010.03
2024-01-07T23:46:04.891Z,1010.16
